Time;durP1;ratioP1;P1;durP2;ratioP2;P2;SDS_P1;SDS_P2;PMS_P1;PMS_P2;Temp;Humidity;BMP_temperature;BMP_pressure;BME280_temperature;BME280_humidity;BME280_pressure;Samples;Min_cycle;Max_cycle;Signal;HPM_P1;HPM_P2
2020/12/23 00:02:27;;;;;;;0.83;0.60;;;12.50;12.10;;;;;;4873881;29;20521;-71
2020/12/23 00:04:54;;;;;;;0.70;0.70;;;12.50;10.60;;;;;;4868683;29;20473;-69
2020/12/23 00:07:21;;;;;;;0.80;0.80;;;12.50;6.90;;;;;;4873233;29;20520;-70
2020/12/23 00:09:49;;;;;;;0.80;0.60;;;12.50;12.20;;;;;;4871753;29;20515;-70
2020/12/23 00:12:16;;;;;;;0.60;0.60;;;12.50;4.30;;;;;;4863851;29;21052;-71
2020/12/23 00:14:44;;;;;;;0.80;0.80;;;12.50;1.00;;;;;;4869727;29;20881;-70
2020/12/23 00:17:11;;;;;;;0.70;0.70;;;12.50;2.60;;;;;;4870745;29;20469;-71
2020/12/23 00:19:39;;;;;;;0.60;0.60;;;12.50;1.00;;;;;;4872056;29;20477;-71
2020/12/23 00:22:07;;;;;;;0.83;0.70;;;12.60;1.00;;;;;;4869788;29;20471;-71
2020/12/23 00:24:34;;;;;;;0.70;0.70;;;12.60;1.00;;;;;;4872522;29;20493;-70
2020/12/23 00:27:01;;;;;;;0.57;0.57;;;12.70;1.00;;;;;;4867380;29;20475;-71
2020/12/23 00:29:28;;;;;;;0.73;0.73;;;12.70;1.00;;;;;;4866888;29;20474;-70
2020/12/23 00:31:55;;;;;;;0.80;0.70;;;12.70;1.00;;;;;;4869542;29;20474;-71
2020/12/23 00:34:22;;;;;;;1.10;0.70;;;12.70;1.00;;;;;;4871225;29;21045;-70
2020/12/23 00:36:54;;;;;;;0.80;0.80;;;12.60;1.00;;;;;;4872121;29;20463;-69
2020/12/23 00:39:22;;;;;;;0.73;0.70;;;12.60;1.00;;;;;;4886075;29;20993;-70
2020/12/23 00:41:49;;;;;;;1.33;0.67;;;12.60;1.00;;;;;;4867994;29;21007;-72
2020/12/23 00:44:17;;;;;;;0.70;0.70;;;12.70;1.00;;;;;;4869805;29;20487;-71
2020/12/23 00:46:45;;;;;;;0.60;0.60;;;12.70;1.00;;;;;;4872070;29;20462;-71
2020/12/23 00:49:12;;;;;;;0.67;0.67;;;12.60;1.00;;;;;;4887529;29;20533;-71
2020/12/23 00:51:39;;;;;;;1.37;0.63;;;12.60;1.00;;;;;;4871895;29;20520;-71
2020/12/23 00:54:07;;;;;;;0.60;0.60;;;12.60;1.00;;;;;;4868549;29;20535;-71
2020/12/23 00:56:35;;;;;;;0.83;0.70;;;12.60;1.00;;;;;;4872711;29;20479;-71
2020/12/23 00:59:02;;;;;;;0.60;0.60;;;12.70;1.00;;;;;;4871057;29;20540;-69
2020/12/23 01:01:29;;;;;;;0.90;0.70;;;12.70;1.00;;;;;;4868670;29;21206;-71
2020/12/23 01:03:56;;;;;;;1.67;0.80;;;12.70;1.00;;;;;;4864757;29;20972;-71
2020/12/23 01:06:23;;;;;;;0.60;0.60;;;12.70;1.00;;;;;;4871914;29;20471;-71
2020/12/23 01:08:50;;;;;;;0.80;0.80;;;12.70;1.00;;;;;;4864728;29;20958;-72
2020/12/23 01:11:18;;;;;;;0.60;0.60;;;12.70;1.00;;;;;;4869408;29;20486;-71
2020/12/23 01:13:45;;;;;;;1.00;0.60;;;12.80;1.00;;;;;;4872562;29;20481;-71
2020/12/23 01:16:18;;;;;;;1.80;0.60;;;12.80;1.00;;;;;;4865786;29;20529;-71
2020/12/23 01:18:45;;;;;;;1.03;0.60;;;12.70;1.00;;;;;;4870703;29;20480;-71
2020/12/23 01:21:12;;;;;;;1.00;0.70;;;12.80;1.00;;;;;;4866315;29;20497;-71
2020/12/23 01:23:41;;;;;;;0.50;0.50;;;12.80;1.00;;;;;;4870662;29;20475;-71
2020/12/23 01:26:08;;;;;;;0.50;0.50;;;12.90;1.00;;;;;;4871705;29;20822;-71
2020/12/23 01:28:36;;;;;;;0.60;0.60;;;12.90;1.00;;;;;;4869453;29;20457;-71
2020/12/23 01:31:04;;;;;;;0.60;0.60;;;12.90;1.00;;;;;;4870150;29;20513;-71
2020/12/23 01:33:31;;;;;;;0.50;0.50;;;12.90;1.00;;;;;;4874461;29;20467;-71
2020/12/23 01:35:58;;;;;;;1.00;0.50;;;12.90;1.00;;;;;;4874856;29;21025;-71
2020/12/23 01:38:25;;;;;;;0.97;0.50;;;13.00;1.00;;;;;;4876432;29;20522;-71
2020/12/23 01:40:57;;;;;;;0.70;0.70;;;13.00;1.00;;;;;;4875698;29;20528;-71
2020/12/23 01:43:24;;;;;;;0.93;0.53;;;13.00;1.00;;;;;;4875894;29;20922;-71
2020/12/23 01:45:52;;;;;;;0.53;0.53;;;13.10;1.00;;;;;;4874546;29;20555;-71
2020/12/23 01:48:21;;;;;;;0.50;0.50;;;13.10;1.00;;;;;;4873714;29;20498;-70
2020/12/23 01:50:49;;;;;;;0.60;0.60;;;13.10;1.00;;;;;;4873544;29;20584;-70
2020/12/23 01:53:17;;;;;;;0.60;0.60;;;13.20;1.00;;;;;;4874955;29;20453;-71
2020/12/23 01:55:45;;;;;;;0.53;0.53;;;13.20;1.00;;;;;;4869091;29;20462;-71
2020/12/23 01:58:13;;;;;;;0.73;0.50;;;13.20;1.00;;;;;;4873635;29;20480;-71
2020/12/23 02:00:40;;;;;;;0.50;0.50;;;13.20;1.00;;;;;;4873163;29;20507;-71
2020/12/23 02:03:10;;;;;;;1.03;0.80;;;13.20;1.00;;;;;;4874455;29;20506;-71
2020/12/23 02:05:38;;;;;;;0.50;0.50;;;13.30;1.00;;;;;;4874641;29;20496;-71
2020/12/23 02:08:05;;;;;;;0.57;0.57;;;13.30;1.00;;;;;;4872693;29;20481;-71
2020/12/23 02:10:32;;;;;;;0.60;0.60;;;13.30;1.00;;;;;;4873037;29;20480;-71
2020/12/23 02:13:00;;;;;;;0.50;0.50;;;13.30;1.00;;;;;;4868790;29;20468;-69
2020/12/23 02:15:27;;;;;;;0.50;0.50;;;13.30;1.00;;;;;;4874025;29;21051;-70
2020/12/23 02:17:55;;;;;;;0.60;0.60;;;13.30;1.00;;;;;;4871015;29;20473;-71
2020/12/23 02:20:24;;;;;;;0.53;0.53;;;13.30;1.00;;;;;;4868091;29;20619;-70
2020/12/23 02:22:52;;;;;;;0.50;0.50;;;13.30;1.00;;;;;;4873800;29;20479;-71
2020/12/23 02:25:19;;;;;;;0.53;0.53;;;13.30;1.00;;;;;;4874607;29;20550;-71
2020/12/23 02:27:46;;;;;;;0.60;0.60;;;13.30;1.00;;;;;;4874115;29;20472;-71
2020/12/23 02:30:13;;;;;;;1.90;0.60;;;13.30;1.00;;;;;;4874245;29;21011;-71
2020/12/23 02:32:41;;;;;;;0.57;0.50;;;13.30;1.00;;;;;;4873544;29;20525;-71
2020/12/23 02:35:09;;;;;;;0.40;0.40;;;13.30;1.00;;;;;;4873242;29;20471;-71
2020/12/23 02:37:37;;;;;;;0.50;0.50;;;13.30;1.00;;;;;;4873667;29;21093;-72
2020/12/23 02:40:06;;;;;;;0.50;0.50;;;13.30;1.00;;;;;;4869264;29;21379;-71
2020/12/23 02:42:33;;;;;;;0.60;0.60;;;13.30;99.90;;;;;;4885323;29;20728;-71
2020/12/23 02:45:00;;;;;;;0.53;0.53;;;13.30;99.90;;;;;;4870897;29;20488;-69
2020/12/23 02:47:28;;;;;;;0.70;0.50;;;13.30;99.90;;;;;;4873598;29;20467;-72
2020/12/23 02:49:55;;;;;;;0.40;0.40;;;13.30;99.90;;;;;;4873479;29;20941;-71
2020/12/23 02:52:22;;;;;;;0.57;0.50;;;13.40;99.90;;;;;;4873552;29;20525;-72
2020/12/23 02:54:49;;;;;;;0.50;0.50;;;13.40;99.90;;;;;;4874135;29;20891;-71
2020/12/23 02:57:17;;;;;;;0.50;0.50;;;13.40;99.90;;;;;;4869736;29;20561;-71
2020/12/23 02:59:44;;;;;;;0.53;0.50;;;13.30;99.90;;;;;;4863393;29;20502;-71
2020/12/23 03:02:11;;;;;;;0.53;0.53;;;13.30;99.90;;;;;;4865424;29;20471;-72
2020/12/23 03:04:38;;;;;;;0.50;0.50;;;13.30;99.90;;;;;;4864471;29;21199;-71
2020/12/23 03:07:05;;;;;;;1.43;0.70;;;13.30;99.90;;;;;;4874374;29;20478;-71
2020/12/23 03:09:32;;;;;;;0.70;0.53;;;13.30;99.90;;;;;;4874198;29;20540;-70
2020/12/23 03:11:59;;;;;;;0.57;0.50;;;13.30;1.00;;;;;;4870574;29;20476;-72
2020/12/23 03:14:27;;;;;;;1.03;0.50;;;13.20;99.90;;;;;;4873420;29;20476;-71
2020/12/23 03:16:54;;;;;;;0.60;0.60;;;13.20;99.90;;;;;;4873082;29;20533;-71
2020/12/23 03:19:21;;;;;;;0.60;0.60;;;13.20;99.90;;;;;;4868237;29;20588;-71
2020/12/23 03:21:48;;;;;;;0.90;0.90;;;13.20;99.90;;;;;;4873515;29;20840;-72
2020/12/23 03:24:15;;;;;;;0.50;0.50;;;13.20;99.90;;;;;;4874166;29;20480;-71
2020/12/23 03:26:42;;;;;;;1.20;0.60;;;13.20;1.00;;;;;;4866857;29;20965;-71
2020/12/23 03:29:09;;;;;;;0.57;0.57;;;13.20;99.90;;;;;;4868107;29;20955;-71
2020/12/23 03:31:39;;;;;;;0.50;0.50;;;13.20;99.90;;;;;;4871439;29;20569;-71
2020/12/23 03:34:06;;;;;;;0.70;0.50;;;13.20;99.90;;;;;;4872418;29;20493;-71
2020/12/23 03:36:33;;;;;;;0.60;0.60;;;13.20;1.00;;;;;;4873045;29;20472;-71
2020/12/23 03:39:00;;;;;;;0.70;0.60;;;13.20;1.00;;;;;;4873852;29;20462;-71
2020/12/23 03:41:27;;;;;;;0.67;0.60;;;13.20;1.00;;;;;;4868659;29;20498;-71
2020/12/23 03:43:54;;;;;;;0.60;0.60;;;13.10;1.00;;;;;;4870046;29;20458;-71
2020/12/23 03:46:21;;;;;;;0.50;0.50;;;13.10;1.00;;;;;;4870172;29;20492;-70
2020/12/23 03:48:49;;;;;;;2.30;0.57;;;13.10;1.00;;;;;;4872634;29;20476;-71
2020/12/23 03:51:16;;;;;;;0.70;0.60;;;13.10;1.00;;;;;;4867703;29;20560;-71
2020/12/23 03:53:43;;;;;;;0.60;0.60;;;13.10;1.00;;;;;;4872881;29;20475;-71
2020/12/23 03:56:11;;;;;;;0.50;0.50;;;13.10;1.00;;;;;;4870984;29;20471;-71
2020/12/23 03:58:38;;;;;;;0.60;0.60;;;13.10;99.90;;;;;;4867648;29;20523;-72
2020/12/23 04:01:05;;;;;;;0.50;0.50;;;13.10;99.90;;;;;;4863453;29;20482;-71
2020/12/23 04:03:32;;;;;;;0.60;0.60;;;13.10;99.90;;;;;;4861002;29;20474;-72
2020/12/23 04:06:01;;;;;;;0.60;0.60;;;13.10;99.90;;;;;;4871280;29;20489;-71
2020/12/23 04:08:28;;;;;;;1.07;0.50;;;13.10;99.90;;;;;;4871708;29;21008;-71
2020/12/23 04:10:55;;;;;;;0.63;0.63;;;13.10;99.90;;;;;;4873031;29;20504;-72
2020/12/23 04:13:22;;;;;;;0.53;0.53;;;13.10;99.90;;;;;;4867727;29;20857;-71
2020/12/23 04:15:49;;;;;;;0.60;0.60;;;13.10;99.90;;;;;;4862489;29;21214;-72
2020/12/23 04:18:16;;;;;;;1.00;0.60;;;13.20;99.90;;;;;;4864854;29;20505;-72
2020/12/23 04:20:43;;;;;;;0.90;0.53;;;13.20;99.90;;;;;;4868905;29;20527;-71
2020/12/23 04:23:14;;;;;;;0.50;0.50;;;13.20;22.50;;;;;;4873024;29;20503;-72
2020/12/23 04:25:41;;;;;;;0.50;0.50;;;13.20;99.90;;;;;;4870165;29;20488;-70
2020/12/23 04:28:08;;;;;;;1.07;0.60;;;13.20;99.90;;;;;;4871922;29;20532;-71
2020/12/23 04:30:36;;;;;;;0.50;0.50;;;13.10;99.90;;;;;;4871150;29;20581;-72
2020/12/23 04:33:03;;;;;;;1.13;0.50;;;13.20;99.90;;;;;;4865692;29;20492;-72
2020/12/23 04:35:30;;;;;;;0.60;0.60;;;13.10;1.00;;;;;;4871045;29;20464;-72
2020/12/23 04:37:57;;;;;;;1.27;0.67;;;13.10;1.00;;;;;;4864497;29;20917;-71
2020/12/23 04:40:25;;;;;;;1.30;1.03;;;13.10;1.00;;;;;;4866413;29;20517;-70
2020/12/23 04:42:53;;;;;;;0.50;0.50;;;13.10;1.00;;;;;;4869647;29;20524;-72
2020/12/23 04:45:23;;;;;;;0.60;0.60;;;13.00;1.00;;;;;;4872197;29;20570;-72
2020/12/23 04:47:52;;;;;;;0.70;0.70;;;13.00;1.00;;;;;;4872670;29;20480;-72
2020/12/23 04:50:21;;;;;;;1.83;0.50;;;13.00;1.00;;;;;;4870645;29;21012;-70
2020/12/23 04:52:48;;;;;;;0.50;0.50;;;12.90;1.00;;;;;;4869579;29;20545;-71
2020/12/23 04:55:16;;;;;;;0.60;0.60;;;12.90;1.00;;;;;;4870659;29;20461;-71
2020/12/23 04:57:44;;;;;;;0.57;0.50;;;12.80;1.00;;;;;;4872755;29;20535;-71
2020/12/23 05:00:12;;;;;;;0.70;0.70;;;12.90;1.00;;;;;;4869662;29;20499;-71
2020/12/23 05:02:39;;;;;;;0.60;0.60;;;12.80;1.00;;;;;;4876376;29;20466;-71
2020/12/23 05:05:17;;;;;;;0.60;0.60;;;12.70;1.00;;;;;;4865566;29;20483;-70
2020/12/23 05:07:47;;;;;;;0.50;0.50;;;12.60;1.00;;;;;;4874058;29;20569;-71
2020/12/23 05:10:14;;;;;;;0.70;0.50;;;12.60;1.00;;;;;;4874072;29;20531;-71
2020/12/23 05:12:41;;;;;;;1.17;0.73;;;12.50;1.00;;;;;;4875142;29;20475;-71
2020/12/23 05:15:09;;;;;;;0.83;0.80;;;12.60;1.00;;;;;;4876619;29;20555;-71
2020/12/23 05:17:37;;;;;;;0.60;0.60;;;12.60;1.00;;;;;;4875899;29;20461;-71
2020/12/23 05:20:06;;;;;;;0.60;0.60;;;12.60;1.00;;;;;;4874923;29;20498;-71
2020/12/23 05:22:34;;;;;;;1.33;0.60;;;12.60;1.00;;;;;;4875691;29;20549;-72
2020/12/23 05:25:02;;;;;;;0.60;0.50;;;12.60;1.00;;;;;;4876833;29;20990;-71
2020/12/23 05:27:32;;;;;;;0.53;0.50;;;12.60;1.00;;;;;;4873537;29;20460;-71
2020/12/23 05:30:01;;;;;;;0.60;0.50;;;12.60;1.00;;;;;;4872137;29;20575;-72
2020/12/23 05:32:29;;;;;;;0.50;0.50;;;12.60;1.00;;;;;;4871902;29;20491;-71
2020/12/23 05:35:00;;;;;;;0.53;0.53;;;12.70;1.00;;;;;;4869533;29;20568;-71
2020/12/23 05:37:27;;;;;;;3.83;0.70;;;12.70;1.00;;;;;;4876803;29;20468;-71
2020/12/23 05:39:55;;;;;;;0.60;0.57;;;12.70;1.00;;;;;;4872041;29;20486;-71
2020/12/23 05:42:23;;;;;;;0.60;0.60;;;12.70;1.00;;;;;;4877544;29;21006;-71
2020/12/23 05:44:51;;;;;;;0.70;0.50;;;12.70;1.00;;;;;;4876196;29;20472;-71
2020/12/23 05:47:22;;;;;;;0.60;0.60;;;12.70;1.00;;;;;;4873481;29;20536;-72
2020/12/23 05:49:51;;;;;;;0.60;0.60;;;12.70;1.00;;;;;;4876075;29;20909;-71
2020/12/23 05:52:21;;;;;;;0.57;0.57;;;12.70;1.00;;;;;;4871651;29;20474;-70
2020/12/23 05:54:50;;;;;;;0.70;0.70;;;12.70;1.00;;;;;;4866370;29;20476;-72
2020/12/23 05:57:17;;;;;;;0.50;0.50;;;12.70;1.00;;;;;;4869656;29;20526;-71
2020/12/23 05:59:46;;;;;;;0.50;0.50;;;12.70;1.00;;;;;;4874109;29;20499;-71
2020/12/23 06:02:13;;;;;;;2.10;0.70;;;12.70;1.00;;;;;;4874681;29;20530;-71
2020/12/23 06:04:43;;;;;;;2.10;0.80;;;12.60;1.00;;;;;;4874715;29;20475;-70
2020/12/23 06:07:12;;;;;;;0.63;0.63;;;12.60;1.00;;;;;;4877319;29;20808;-70
2020/12/23 06:09:46;;;;;;;0.50;0.50;;;12.50;1.00;;;;;;4875256;29;20479;-72
2020/12/23 06:12:18;;;;;;;0.67;0.60;;;12.50;1.00;;;;;;4880561;29;20527;-71
2020/12/23 06:14:52;;;;;;;1.67;0.67;;;12.50;1.00;;;;;;4878287;29;20470;-71
2020/12/23 06:17:21;;;;;;;0.53;0.50;;;12.50;1.00;;;;;;4873583;29;21027;-69
2020/12/23 06:19:53;;;;;;;0.70;0.60;;;12.50;1.00;;;;;;4874409;29;20567;-71
2020/12/23 06:22:23;;;;;;;0.70;0.70;;;12.50;1.00;;;;;;4869969;29;20472;-69
2020/12/23 06:24:51;;;;;;;0.60;0.60;;;12.50;1.00;;;;;;4875753;29;20887;-70
2020/12/23 06:27:18;;;;;;;0.60;0.60;;;12.50;1.00;;;;;;4876747;29;20547;-70
2020/12/23 06:29:47;;;;;;;0.70;0.70;;;12.50;1.00;;;;;;4868680;29;20620;-71
2020/12/23 06:32:19;;;;;;;0.60;0.60;;;12.50;1.00;;;;;;4875179;29;20478;-72
2020/12/23 06:34:55;;;;;;;0.97;0.67;;;12.50;1.00;;;;;;4873130;29;20475;-71
2020/12/23 06:37:24;;;;;;;1.00;0.70;;;12.50;1.00;;;;;;4876704;29;20478;-70
2020/12/23 06:39:53;;;;;;;0.97;0.60;;;12.50;1.00;;;;;;4867975;29;20516;-71
2020/12/23 06:42:28;;;;;;;0.87;0.70;;;12.50;1.00;;;;;;4871381;29;20466;-70
2020/12/23 06:45:06;;;;;;;2.00;0.60;;;12.50;1.00;;;;;;4873837;29;20883;-71
2020/12/23 06:47:35;;;;;;;1.03;0.70;;;12.50;1.00;;;;;;4876305;29;20473;-72
2020/12/23 06:50:04;;;;;;;0.90;0.57;;;12.50;1.00;;;;;;4871341;29;20490;-70
2020/12/23 06:52:44;;;;;;;0.87;0.63;;;12.40;1.00;;;;;;4872091;29;20536;-70
2020/12/23 06:55:13;;;;;;;1.10;0.80;;;12.50;1.00;;;;;;4868973;29;20849;-72
2020/12/23 06:58:01;;;;;;;1.40;0.70;;;12.50;1.00;;;;;;4877826;29;20584;-72
2020/12/23 07:00:41;;;;;;;0.70;0.70;;;12.50;1.00;;;;;;4876609;29;20545;-72
2020/12/23 07:03:10;;;;;;;3.00;0.70;;;12.50;1.00;;;;;;4880264;29;20505;-72
2020/12/23 07:05:45;;;;;;;0.60;0.60;;;12.50;1.00;;;;;;4875755;29;20522;-71
2020/12/23 07:08:17;;;;;;;0.70;0.70;;;12.50;1.00;;;;;;4869173;29;20470;-72
2020/12/23 07:10:47;;;;;;;0.70;0.70;;;12.50;1.00;;;;;;4871548;29;20486;-71
2020/12/23 07:13:19;;;;;;;1.57;0.70;;;12.50;1.00;;;;;;4875531;29;20485;-71
2020/12/23 07:15:57;;;;;;;0.63;0.63;;;12.50;1.00;;;;;;4883634;29;20470;-71
2020/12/23 07:18:26;;;;;;;3.17;1.10;;;12.60;1.00;;;;;;4874325;29;20473;-71
2020/12/23 07:21:03;;;;;;;0.80;0.80;;;12.60;99.90;;;;;;4875199;29;20549;-71
2020/12/23 07:23:32;;;;;;;0.60;0.60;;;12.60;99.90;;;;;;4874434;29;20559;-72
2020/12/23 07:26:03;;;;;;;0.70;0.70;;;12.60;99.90;;;;;;4873867;29;20491;-72
2020/12/23 07:28:33;;;;;;;0.73;0.60;;;12.60;99.90;;;;;;4875073;29;20468;-71
2020/12/23 07:31:01;;;;;;;0.60;0.60;;;12.70;99.90;;;;;;4874466;29;20560;-72
2020/12/23 07:33:30;;;;;;;1.50;0.70;;;12.70;99.90;;;;;;4873890;29;20916;-72
2020/12/23 07:35:58;;;;;;;0.70;0.70;;;12.70;99.90;;;;;;4874057;29;20534;-70
2020/12/23 07:38:28;;;;;;;0.90;0.60;;;12.70;99.90;;;;;;4873870;29;20891;-71
2020/12/23 07:40:56;;;;;;;4.30;0.70;;;12.70;99.90;;;;;;4880284;29;21090;-71
2020/12/23 07:43:23;;;;;;;0.83;0.70;;;12.70;20.90;;;;;;4874659;29;20471;-71
2020/12/23 07:45:51;;;;;;;1.00;0.90;;;12.70;99.90;;;;;;4874536;29;20487;-72
2020/12/23 07:48:20;;;;;;;1.10;0.70;;;12.60;99.90;;;;;;4886002;29;20541;-72
2020/12/23 07:50:49;;;;;;;0.70;0.63;;;12.70;99.90;;;;;;4872144;29;20513;-72
2020/12/23 07:53:18;;;;;;;1.10;1.10;;;12.70;1.00;;;;;;4871111;29;20508;-71
2020/12/23 07:55:47;;;;;;;2.67;1.07;;;12.70;1.00;;;;;;4871553;29;20812;-71
2020/12/23 07:58:15;;;;;;;0.77;0.70;;;12.70;1.00;;;;;;4875238;29;20883;-71
2020/12/23 08:00:44;;;;;;;15.67;2.83;;;12.70;1.00;;;;;;4874583;29;21063;-71
2020/12/23 08:03:12;;;;;;;5.97;1.20;;;12.70;1.00;;;;;;4874148;29;20471;-71
2020/12/23 08:05:40;;;;;;;8.90;1.47;;;12.70;1.00;;;;;;4889111;29;20506;-71
2020/12/23 08:08:25;;;;;;;0.80;0.80;;;12.70;1.00;;;;;;4872689;29;20480;-71
2020/12/23 08:10:53;;;;;;;5.13;1.20;;;12.80;99.90;;;;;;4874598;29;20493;-72
2020/12/23 08:13:27;;;;;;;1.08;0.70;;;12.80;99.90;;;;;;4874117;29;20508;-71
2020/12/23 08:16:04;;;;;;;1.17;1.07;;;12.80;1.00;;;;;;4873015;29;20211;-72
2020/12/23 08:18:32;;;;;;;1.03;0.80;;;12.90;99.90;;;;;;4872958;29;21207;-71
2020/12/23 08:21:06;;;;;;;1.30;0.70;;;12.90;99.90;;;;;;4873623;29;20484;-71
2020/12/23 08:23:34;;;;;;;2.10;0.70;;;13.00;99.90;;;;;;4873906;29;20844;-71
2020/12/23 08:26:02;;;;;;;0.73;0.73;;;13.00;31.00;;;;;;4873666;29;20574;-71
2020/12/23 08:28:30;;;;;;;0.70;0.70;;;13.00;42.40;;;;;;4873358;29;20470;-70
2020/12/23 08:30:58;;;;;;;0.80;0.80;;;13.10;1.00;;;;;;4870366;29;20561;-70
2020/12/23 08:33:27;;;;;;;4.60;0.97;;;13.00;99.90;;;;;;4871918;29;20469;-71
2020/12/23 08:35:59;;;;;;;0.90;0.80;;;13.00;99.90;;;;;;4887665;29;20911;-73
2020/12/23 08:38:40;;;;;;;6.47;1.30;;;13.10;1.00;;;;;;4873651;29;20551;-72
2020/12/23 08:41:11;;;;;;;2.47;1.00;;;13.10;1.00;;;;;;4874120;29;20567;-71
2020/12/23 08:43:45;;;;;;;6.13;1.10;;;13.10;1.00;;;;;;4878829;29;20479;-72
2020/12/23 08:46:20;;;;;;;7.57;1.37;;;13.10;1.00;;;;;;4881655;29;20482;-71
2020/12/23 08:48:48;;;;;;;5.63;0.93;;;13.20;99.90;;;;;;4876539;29;20494;-74
2020/12/23 08:51:18;;;;;;;2.03;0.80;;;13.30;99.90;;;;;;4876123;29;20871;-72
2020/12/23 08:53:45;;;;;;;1.73;0.80;;;13.40;99.90;;;;;;4879607;29;20488;-73
2020/12/23 08:56:23;;;;;;;1.10;0.80;;;13.40;99.90;;;;;;4875466;29;20476;-71
2020/12/23 08:58:57;;;;;;;1.47;0.80;;;13.40;1.00;;;;;;4875792;29;20475;-70
2020/12/23 09:01:24;;;;;;;2.50;0.90;;;13.40;99.90;;;;;;4877138;29;20543;-73
2020/12/23 09:03:59;;;;;;;3.07;1.37;;;13.40;10.00;;;;;;4878413;29;20476;-72
2020/12/23 09:06:26;;;;;;;2.00;0.80;;;13.40;11.10;;;;;;4877561;29;20491;-71
2020/12/23 09:09:15;;;;;;;7.93;1.20;;;13.40;99.90;;;;;;4877013;29;20483;-70
2020/12/23 09:11:44;;;;;;;2.83;1.00;;;13.40;1.00;;;;;;4877655;29;20489;-72
2020/12/23 09:14:20;;;;;;;5.37;1.20;;;13.40;1.00;;;;;;4878916;29;20464;-72
2020/12/23 09:16:59;;;;;;;12.33;2.30;;;13.40;99.90;;;;;;4878164;29;20538;-72
2020/12/23 09:19:46;;;;;;;4.03;0.93;;;13.50;1.00;;;;;;4877064;29;21171;-73
2020/12/23 09:22:23;;;;;;;2.17;1.00;;;13.50;1.00;;;;;;4875523;29;20552;-72
2020/12/23 09:24:50;;;;;;;1.17;0.90;;;13.60;1.00;;;;;;4873499;29;20472;-73
2020/12/23 09:27:22;;;;;;;1.00;0.90;;;13.60;99.90;;;;;;4876076;29;20507;-73
2020/12/23 09:29:50;;;;;;;1.13;0.60;;;13.70;99.90;;;;;;4872639;29;20853;-72
2020/12/23 09:32:18;;;;;;;0.80;0.80;;;13.70;99.90;;;;;;4875686;29;20468;-72
2020/12/23 09:34:57;;;;;;;1.00;0.83;;;13.70;99.90;;;;;;4874620;29;20500;-71
2020/12/23 09:37:30;;;;;;;0.80;0.70;;;13.60;1.00;;;;;;4876851;29;20468;-72
2020/12/23 09:39:58;;;;;;;0.77;0.77;;;13.60;1.00;;;;;;4875756;29;21115;-71
2020/12/23 09:42:25;;;;;;;0.90;0.70;;;13.60;1.00;;;;;;4873794;29;20465;-73
2020/12/23 09:44:53;;;;;;;1.20;0.80;;;13.70;1.00;;;;;;4874086;29;20464;-72
2020/12/23 09:47:20;;;;;;;0.70;0.60;;;13.70;1.00;;;;;;4876578;29;20482;-71
2020/12/23 09:49:47;;;;;;;1.10;0.80;;;13.70;1.00;;;;;;4879696;29;21025;-74
2020/12/23 09:52:14;;;;;;;0.73;0.73;;;13.80;99.90;;;;;;4876948;29;20471;-71
2020/12/23 09:54:41;;;;;;;0.67;0.67;;;13.90;99.90;;;;;;4874747;29;20620;-72
2020/12/23 09:57:08;;;;;;;0.70;0.70;;;13.90;99.90;;;;;;4877056;29;20501;-72
2020/12/23 09:59:36;;;;;;;0.93;0.60;;;13.90;1.00;;;;;;4873583;29;20553;-71
2020/12/23 10:02:04;;;;;;;0.80;0.80;;;13.80;99.90;;;;;;4874767;29;20530;-72
2020/12/23 10:04:32;;;;;;;2.57;0.90;;;13.70;99.90;;;;;;4874827;29;20482;-72
2020/12/23 10:06:59;;;;;;;1.00;0.90;;;13.70;99.90;;;;;;4876073;29;20486;-71
2020/12/23 10:09:39;;;;;;;0.97;0.73;;;13.60;99.90;;;;;;4883958;29;20490;-71
2020/12/23 10:12:06;;;;;;;0.80;0.80;;;13.70;28.10;;;;;;4876804;29;20485;-72
2020/12/23 10:14:33;;;;;;;0.80;0.70;;;13.70;99.90;;;;;;4875545;29;20897;-72
2020/12/23 10:17:00;;;;;;;0.90;0.90;;;13.70;1.00;;;;;;4876252;29;21105;-73
2020/12/23 10:19:28;;;;;;;0.73;0.70;;;13.70;99.90;;;;;;4876468;29;21325;-71
2020/12/23 10:21:55;;;;;;;1.10;0.90;;;13.70;99.90;;;;;;4877614;29;20475;-73
2020/12/23 10:24:22;;;;;;;1.20;1.10;;;13.70;1.00;;;;;;4875379;29;20846;-73
2020/12/23 10:26:52;;;;;;;0.70;0.70;;;13.60;42.20;;;;;;4873624;29;20484;-71
2020/12/23 10:29:19;;;;;;;0.73;0.73;;;13.60;99.90;;;;;;4872178;29;20528;-72
2020/12/23 10:31:48;;;;;;;1.00;0.70;;;13.60;99.90;;;;;;4874015;29;21013;-72
2020/12/23 10:34:16;;;;;;;0.80;0.80;;;13.60;1.00;;;;;;4877723;29;20472;-72
2020/12/23 10:36:46;;;;;;;0.87;0.87;;;13.60;1.00;;;;;;4880679;29;20518;-74
2020/12/23 10:39:15;;;;;;;0.97;0.80;;;13.60;1.00;;;;;;4876754;29;20466;-73
2020/12/23 10:41:43;;;;;;;0.70;0.70;;;13.70;99.90;;;;;;4876566;29;20481;-75
2020/12/23 10:44:10;;;;;;;1.63;0.70;;;13.80;1.00;;;;;;4875241;29;20842;-73
2020/12/23 10:46:37;;;;;;;0.80;0.80;;;13.90;99.90;;;;;;4872745;29;20508;-72
2020/12/23 10:49:05;;;;;;;0.70;0.70;;;14.10;1.00;;;;;;4891198;29;20459;-73
2020/12/23 10:51:33;;;;;;;0.60;0.60;;;14.40;1.00;;;;;;4878732;29;20495;-72
2020/12/23 10:54:01;;;;;;;1.20;0.70;;;14.60;1.70;;;;;;4873930;29;20978;-73
2020/12/23 10:56:28;;;;;;;0.70;0.70;;;14.70;99.90;;;;;;4876955;29;20408;-73
2020/12/23 10:58:55;;;;;;;0.80;0.70;;;14.70;1.00;;;;;;4876386;29;20203;-72
2020/12/23 11:01:23;;;;;;;0.97;0.70;;;14.70;99.90;;;;;;4876213;29;20563;-73
2020/12/23 11:03:50;;;;;;;0.80;0.70;;;14.70;99.90;;;;;;4877878;29;20467;-73
2020/12/23 11:06:17;;;;;;;0.60;0.60;;;14.80;99.90;;;;;;4882824;29;20479;-74
2020/12/23 11:08:44;;;;;;;1.00;0.70;;;15.00;1.00;;;;;;4896072;29;20485;-73
2020/12/23 11:11:14;;;;;;;0.97;0.80;;;15.00;1.00;;;;;;4876145;29;20483;-73
2020/12/23 11:13:42;;;;;;;1.50;0.80;;;14.90;1.00;;;;;;4876675;29;20477;-73
2020/12/23 11:16:14;;;;;;;8.83;1.63;;;14.80;99.90;;;;;;4880727;29;21097;-73
2020/12/23 11:18:42;;;;;;;3.17;0.90;;;14.60;1.00;;;;;;4878236;29;20524;-70
2020/12/23 11:21:09;;;;;;;0.90;0.60;;;14.50;99.90;;;;;;4875680;29;20494;-72
2020/12/23 11:23:37;;;;;;;0.83;0.77;;;14.40;99.90;;;;;;4872797;29;20960;-73
2020/12/23 11:26:04;;;;;;;0.90;0.90;;;14.40;1.00;;;;;;4875802;29;20518;-72
2020/12/23 11:28:42;;;;;;;1.10;0.93;;;14.40;99.90;;;;;;4873934;29;20463;-73
2020/12/23 11:31:09;;;;;;;1.33;0.90;;;14.40;1.00;;;;;;4872779;29;20571;-72
2020/12/23 11:33:36;;;;;;;0.70;0.70;;;14.40;1.00;;;;;;4880467;29;20474;-73
2020/12/23 11:36:04;;;;;;;0.73;0.70;;;14.50;1.00;;;;;;4872367;29;21016;-72
2020/12/23 11:38:31;;;;;;;1.10;0.90;;;14.40;99.90;;;;;;4876669;29;20468;-73
2020/12/23 11:40:58;;;;;;;0.80;0.63;;;14.40;99.90;;;;;;4875730;29;20474;-73
2020/12/23 11:43:25;;;;;;;1.50;1.00;;;14.40;99.90;;;;;;4881581;29;20464;-74
2020/12/23 11:45:54;;;;;;;1.40;1.00;;;14.50;99.90;;;;;;4875029;29;20472;-73
2020/12/23 11:48:21;;;;;;;0.87;0.80;;;14.60;99.90;;;;;;4876747;29;20545;-71
2020/12/23 11:50:48;;;;;;;0.93;0.93;;;14.60;23.70;;;;;;4877881;29;20497;-72
2020/12/23 11:53:15;;;;;;;1.00;0.80;;;14.60;99.90;;;;;;4875595;29;20473;-73
2020/12/23 11:55:42;;;;;;;1.23;0.70;;;14.50;41.90;;;;;;4875374;29;20475;-73
2020/12/23 11:58:09;;;;;;;0.70;0.70;;;14.50;1.00;;;;;;4875775;29;20822;-71
2020/12/23 12:00:36;;;;;;;1.20;1.10;;;14.50;1.00;;;;;;4875151;29;20488;-73
2020/12/23 12:03:04;;;;;;;1.03;0.90;;;14.40;1.00;;;;;;4890600;29;20512;-73
2020/12/23 12:05:33;;;;;;;0.67;0.67;;;14.40;1.00;;;;;;4887649;29;20545;-73
2020/12/23 12:08:03;;;;;;;3.60;0.87;;;14.40;99.90;;;;;;4877775;29;20500;-72
2020/12/23 12:10:30;;;;;;;1.30;0.93;;;14.30;1.00;;;;;;4873479;29;20485;-72
2020/12/23 12:12:57;;;;;;;3.80;0.70;;;14.40;1.00;;;;;;4876460;29;20466;-72
2020/12/23 12:15:24;;;;;;;0.70;0.70;;;14.30;1.00;;;;;;4877326;29;20466;-73
2020/12/23 12:17:51;;;;;;;0.80;0.80;;;14.30;1.00;;;;;;4893566;29;20464;-73
2020/12/23 12:20:19;;;;;;;0.60;0.60;;;14.30;1.00;;;;;;4873355;29;21071;-72
2020/12/23 12:22:47;;;;;;;1.10;0.85;;;14.20;1.00;;;;;;4877317;29;20502;-73
2020/12/23 12:25:16;;;;;;;0.83;0.83;;;14.20;1.00;;;;;;4875527;29;20457;-73
2020/12/23 12:27:43;;;;;;;0.77;0.70;;;14.40;1.00;;;;;;4874990;29;20542;-72
2020/12/23 12:30:10;;;;;;;1.17;0.93;;;14.30;1.00;;;;;;4872181;29;20491;-72
2020/12/23 12:32:37;;;;;;;0.80;0.80;;;14.40;1.00;;;;;;4872109;29;20894;-72
2020/12/23 12:35:04;;;;;;;1.20;0.90;;;14.50;1.00;;;;;;4872058;29;20472;-71
2020/12/23 12:37:32;;;;;;;0.90;0.90;;;14.50;1.00;;;;;;4874874;29;20457;-71
2020/12/23 12:40:00;;;;;;;0.97;0.90;;;14.50;99.90;;;;;;4875931;29;20501;-73
2020/12/23 12:42:27;;;;;;;1.30;0.70;;;14.50;99.90;;;;;;4872469;29;20603;-73
2020/12/23 12:44:54;;;;;;;1.57;0.80;;;14.60;99.90;;;;;;4876890;29;20462;-72
2020/12/23 12:47:21;;;;;;;0.83;0.70;;;14.60;86.30;;;;;;4877272;29;20490;-73
2020/12/23 12:49:48;;;;;;;0.60;0.60;;;14.60;1.00;;;;;;4879370;29;20520;-72
2020/12/23 12:52:15;;;;;;;0.80;0.80;;;14.80;1.00;;;;;;4878039;29;20917;-71
2020/12/23 12:54:43;;;;;;;1.23;0.80;;;14.80;1.00;;;;;;4881460;29;20972;-73
2020/12/23 12:57:10;;;;;;;1.53;0.77;;;14.80;1.00;;;;;;4880259;29;20472;-71
2020/12/23 12:59:39;;;;;;;1.23;0.60;;;14.80;1.00;;;;;;4873631;29;21007;-72
2020/12/23 13:02:08;;;;;;;0.60;0.60;;;14.80;99.90;;;;;;4875369;29;20471;-72